PWSweather.com
Personal Weather Stations
Station Observations
PICKERING
North Yorkshire, PickeringGB

North YorkshirePickeringGB

Lat: 54.2494, Lon: -0.7725

Elevation: 192

Station Type: Oregon Scientific WMR100

http://www.yorkshirewalker.co.uk/weather/

High Low Average
Temperature 38.1°F3.4°C 24.4°F-4.2°C 28.0°F-2.2°C
Dew Point 21.2°F-6.0°C 10.4°F-12.0°C 14.8°F-9.6°C
Winds 18.5 mph 29.8 kmh 2.0 mph 3.2 kmh 9.0 mph E14.5 kmh E
Wind Gusts 28.0 mph45.1 kmh 3.8 mph6.1 kmh 15.0 mph24.1 kmh
Humidity 72% 45% 61%
Pressure 30.30 in1026.1 mb 30.12 in1020.0 mb -
Precipitation 0.00 in0.0 mm - -
Hour Temp Dew Point Humidity Winds Wind Gusts Pressure Precip Precip Rate Daily Precip Total
12:00 AM 25.5°F-3.6°C 10.4°F-12.0°C 55% 6.5 mph NE10.5 kmh NE 10.5 mph16.9 kmh 30.27 in1025.1 mb 0.00 in0.0 mm 0.00 in0.0 mm 0.00 in0.0 mm
12:05 AM 25.5°F-3.6°C 10.4°F-12.0°C 55% 6.8 mph NE10.9 kmh NE 10.5 mph16.9 kmh 30.27 in1025.1 mb 0.00 in0.0 mm 0.00 in0.0 mm 0.00 in0.0 mm
12:10 AM 25.7°F-3.5°C 10.4°F-12.0°C 55% 7.9 mph ENE12.7 kmh ENE 13.0 mph20.9 kmh 30.27 in1025.1 mb 0.00 in0.0 mm 0.00 in0.0 mm 0.00 in0.0 mm
12:15 AM 25.7°F-3.5°C 10.4°F-12.0°C 55% 7.7 mph ENE12.4 kmh ENE 13.0 mph20.9 kmh 30.27 in1025.1 mb 0.00 in0.0 mm 0.00 in0.0 mm 0.00 in0.0 mm
12:20 AM 25.5°F-3.6°C 10.4°F-12.0°C 55% 7.1 mph ENE11.4 kmh ENE 11.2 mph18.0 kmh 30.27 in1025.1 mb 0.00 in0.0 mm 0.00 in0.0 mm 0.00 in0.0 mm
12:25 AM 25.9°F-3.4°C 10.4°F-12.0°C 55% 8.9 mph ENE14.3 kmh ENE 15.4 mph24.8 kmh 30.27 in1025.1 mb 0.00 in0.0 mm 0.00 in0.0 mm 0.00 in0.0 mm
12:30 AM 25.7°F-3.5°C 10.4°F-12.0°C 55% 8.9 mph ENE14.3 kmh ENE 15.4 mph24.8 kmh 30.27 in1025.1 mb 0.00 in0.0 mm 0.00 in0.0 mm 0.00 in0.0 mm
12:35 AM 25.9°F-3.4°C 10.4°F-12.0°C 55% 6.7 mph NE10.8 kmh NE 10.3 mph16.6 kmh 30.27 in1025.1 mb 0.00 in0.0 mm 0.00 in0.0 mm 0.00 in0.0 mm
12:40 AM 25.5°F-3.6°C 10.4°F-12.0°C 55% 7.9 mph ENE12.7 kmh ENE 10.5 mph16.9 kmh 30.27 in1025.1 mb 0.00 in0.0 mm 0.00 in0.0 mm 0.00 in0.0 mm
12:45 AM 25.5°F-3.6°C 10.4°F-12.0°C 55% 9.5 mph ENE15.3 kmh ENE 11.0 mph17.7 kmh 30.27 in1025.1 mb 0.00 in0.0 mm 0.00 in0.0 mm 0.00 in0.0 mm
12:50 AM 25.5°F-3.6°C 10.4°F-12.0°C 56% 9.0 mph ENE14.5 kmh ENE 11.0 mph17.7 kmh 30.27 in1025.1 mb 0.00 in0.0 mm 0.00 in0.0 mm 0.00 in0.0 mm
12:55 AM 25.3°F-3.7°C 10.4°F-12.0°C 56% 8.3 mph ENE13.4 kmh ENE 10.5 mph16.9 kmh 30.27 in1025.1 mb 0.00 in0.0 mm 0.00 in0.0 mm 0.00 in0.0 mm
01:00 AM 25.2°F-3.8°C 10.4°F-12.0°C 56% 8.4 mph ENE13.5 kmh ENE 13.2 mph21.2 kmh 30.27 in1025.1 mb 0.00 in0.0 mm 0.00 in0.0 mm 0.00 in0.0 mm
01:05 AM 25.2°F-3.8°C 10.4°F-12.0°C 56% 6.9 mph ENE11.1 kmh ENE 13.2 mph21.2 kmh 30.27 in1025.1 mb 0.00 in0.0 mm 0.00 in0.0 mm 0.00 in0.0 mm
01:10 AM 25.2°F-3.8°C 10.4°F-12.0°C 57% 5.4 mph ENE8.7 kmh ENE 7.8 mph12.6 kmh 30.27 in1025.1 mb 0.00 in0.0 mm 0.00 in0.0 mm 0.00 in0.0 mm
01:15 AM 24.8°F-4.0°C 10.4°F-12.0°C 58% 4.6 mph ENE7.4 kmh ENE 6.3 mph10.1 kmh 30.27 in1025.1 mb 0.00 in0.0 mm 0.00 in0.0 mm 0.00 in0.0 mm
01:20 AM 24.8°F-4.0°C 10.4°F-12.0°C 58% 6.3 mph ENE10.1 kmh ENE 13.0 mph20.9 kmh 30.27 in1025.1 mb 0.00 in0.0 mm 0.00 in0.0 mm 0.00 in0.0 mm
01:25 AM 25.5°F-3.6°C 12.2°F-11.0°C 58% 9.2 mph ENE14.8 kmh ENE 13.0 mph20.9 kmh 30.27 in1025.1 mb 0.00 in0.0 mm 0.00 in0.0 mm 0.00 in0.0 mm
01:30 AM 25.7°F-3.5°C 12.2°F-11.0°C 60% 9.9 mph ENE15.9 kmh ENE 18.1 mph29.1 kmh 30.27 in1025.1 mb 0.00 in0.0 mm 0.00 in0.0 mm 0.00 in0.0 mm
01:35 AM 25.7°F-3.5°C 12.2°F-11.0°C 61% 11.1 mph E17.9 kmh E 18.1 mph29.1 kmh 30.27 in1025.1 mb 0.00 in0.0 mm 0.00 in0.0 mm 0.00 in0.0 mm
01:40 AM 25.7°F-3.5°C 14.0°F-10.0°C 62% 9.8 mph E15.8 kmh E 15.2 mph24.5 kmh 30.27 in1025.1 mb 0.00 in0.0 mm 0.00 in0.0 mm 0.00 in0.0 mm
01:45 AM 25.9°F-3.4°C 14.0°F-10.0°C 63% 6.7 mph E10.8 kmh E 12.8 mph20.6 kmh 30.27 in1025.1 mb 0.00 in0.0 mm 0.00 in0.0 mm 0.00 in0.0 mm
01:50 AM 25.7°F-3.5°C 14.0°F-10.0°C 63% 5.0 mph ENE8.0 kmh ENE 8.7 mph14.0 kmh 30.27 in1025.1 mb 0.00 in0.0 mm 0.00 in0.0 mm 0.00 in0.0 mm
01:55 AM 25.7°F-3.5°C 14.0°F-10.0°C 63% 4.3 mph NE6.9 kmh NE 8.7 mph14.0 kmh 30.24 in1024.0 mb 0.00 in0.0 mm 0.00 in0.0 mm 0.00 in0.0 mm
02:00 AM 25.7°F-3.5°C 14.0°F-10.0°C 63% 5.0 mph NNE8.0 kmh NNE 7.6 mph12.2 kmh 30.24 in1024.0 mb 0.00 in0.0 mm 0.00 in0.0 mm 0.00 in0.0 mm
02:05 AM 25.5°F-3.6°C 14.0°F-10.0°C 63% 5.6 mph NE9.0 kmh NE 8.5 mph13.7 kmh 30.24 in1024.0 mb 0.00 in0.0 mm 0.00 in0.0 mm 0.00 in0.0 mm
02:10 AM 25.5°F-3.6°C 14.0°F-10.0°C 64% 5.0 mph NE8.0 kmh NE 8.5 mph13.7 kmh 30.24 in1024.0 mb 0.00 in0.0 mm 0.00 in0.0 mm 0.00 in0.0 mm
02:15 AM 25.3°F-3.7°C 14.0°F-10.0°C 64% 3.2 mph E5.1 kmh E 6.3 mph10.1 kmh 30.24 in1024.0 mb 0.00 in0.0 mm 0.00 in0.0 mm 0.00 in0.0 mm
02:20 AM 25.7°F-3.5°C 14.0°F-10.0°C 64% 2.0 mph E3.2 kmh E 3.8 mph6.1 kmh 30.24 in1024.0 mb 0.00 in0.0 mm 0.00 in0.0 mm 0.00 in0.0 mm
02:25 AM 25.7°F-3.5°C 14.0°F-10.0°C 65% 2.6 mph ESE4.2 kmh ESE 7.2 mph11.6 kmh 30.24 in1024.0 mb 0.00 in0.0 mm 0.00 in0.0 mm 0.00 in0.0 mm
02:30 AM 25.7°F-3.5°C 14.0°F-10.0°C 65% 4.1 mph E6.6 kmh E 9.8 mph15.8 kmh 30.24 in1024.0 mb 0.00 in0.0 mm 0.00 in0.0 mm 0.00 in0.0 mm
02:35 AM 25.7°F-3.5°C 14.0°F-10.0°C 65% 7.4 mph ENE11.9 kmh ENE 13.0 mph20.9 kmh 30.24 in1024.0 mb 0.00 in0.0 mm 0.00 in0.0 mm 0.00 in0.0 mm
02:40 AM 25.9°F-3.4°C 14.0°F-10.0°C 66% 7.9 mph ENE12.7 kmh ENE 13.0 mph20.9 kmh 30.24 in1024.0 mb 0.00 in0.0 mm 0.00 in0.0 mm 0.00 in0.0 mm
02:45 AM 25.9°F-3.4°C 14.0°F-10.0°C 66% 5.6 mph ENE9.0 kmh ENE 8.1 mph13.0 kmh 30.24 in1024.0 mb 0.00 in0.0 mm 0.00 in0.0 mm 0.00 in0.0 mm
02:50 AM 26.1°F-3.3°C 15.8°F-9.0°C 67% 6.7 mph ENE10.8 kmh ENE 9.8 mph15.8 kmh 30.24 in1024.0 mb 0.00 in0.0 mm 0.00 in0.0 mm 0.00 in0.0 mm
02:55 AM 25.9°F-3.4°C 15.8°F-9.0°C 67% 8.5 mph ENE13.7 kmh ENE 10.1 mph16.3 kmh 30.24 in1024.0 mb 0.00 in0.0 mm 0.00 in0.0 mm 0.00 in0.0 mm
03:00 AM 25.9°F-3.4°C 15.8°F-9.0°C 68% 8.1 mph NE13.0 kmh NE 11.0 mph17.7 kmh 30.24 in1024.0 mb 0.00 in0.0 mm 0.00 in0.0 mm 0.00 in0.0 mm
03:05 AM 25.7°F-3.5°C 15.8°F-9.0°C 69% 7.4 mph ENE11.9 kmh ENE 11.0 mph17.7 kmh 30.24 in1024.0 mb 0.00 in0.0 mm 0.00 in0.0 mm 0.00 in0.0 mm
03:10 AM 25.9°F-3.4°C 15.8°F-9.0°C 68% 6.0 mph ENE9.7 kmh ENE 11.0 mph17.7 kmh 30.21 in1023.0 mb 0.00 in0.0 mm 0.00 in0.0 mm 0.00 in0.0 mm
03:15 AM 25.9°F-3.4°C 15.8°F-9.0°C 68% 5.4 mph ENE8.7 kmh ENE 8.5 mph13.7 kmh 30.21 in1023.0 mb 0.00 in0.0 mm 0.00 in0.0 mm 0.00 in0.0 mm
03:20 AM 25.9°F-3.4°C 15.8°F-9.0°C 68% 5.1 mph E8.2 kmh E 8.1 mph13.0 kmh 30.21 in1023.0 mb 0.00 in0.0 mm 0.00 in0.0 mm 0.00 in0.0 mm
03:25 AM 25.9°F-3.4°C 15.8°F-9.0°C 68% 6.1 mph E9.8 kmh E 11.0 mph17.7 kmh 30.21 in1023.0 mb 0.00 in0.0 mm 0.00 in0.0 mm 0.00 in0.0 mm
03:30 AM 25.9°F-3.4°C 15.8°F-9.0°C 68% 6.3 mph E10.1 kmh E 11.0 mph17.7 kmh 30.21 in1023.0 mb 0.00 in0.0 mm 0.00 in0.0 mm 0.00 in0.0 mm
03:35 AM 25.9°F-3.4°C 15.8°F-9.0°C 68% 4.4 mph ENE7.1 kmh ENE 7.4 mph11.9 kmh 30.21 in1023.0 mb 0.00 in0.0 mm 0.00 in0.0 mm 0.00 in0.0 mm
03:40 AM 26.1°F-3.3°C 15.8°F-9.0°C 68% 3.4 mph ENE5.5 kmh ENE 6.3 mph10.1 kmh 30.21 in1023.0 mb 0.00 in0.0 mm 0.00 in0.0 mm 0.00 in0.0 mm
03:45 AM 26.2°F-3.2°C 15.8°F-9.0°C 69% 5.2 mph ENE8.4 kmh ENE 9.4 mph15.1 kmh 30.21 in1023.0 mb 0.00 in0.0 mm 0.00 in0.0 mm 0.00 in0.0 mm
03:50 AM 26.4°F-3.1°C 15.8°F-9.0°C 69% 7.6 mph ENE12.2 kmh ENE 10.7 mph17.2 kmh 30.21 in1023.0 mb 0.00 in0.0 mm 0.00 in0.0 mm 0.00 in0.0 mm
03:55 AM 26.2°F-3.2°C 15.8°F-9.0°C 70% 9.4 mph E15.1 kmh E 19.2 mph30.9 kmh 30.21 in1023.0 mb 0.00 in0.0 mm 0.00 in0.0 mm 0.00 in0.0 mm
04:00 AM 26.1°F-3.3°C 15.8°F-9.0°C 70% 10.6 mph E17.1 kmh E 19.2 mph30.9 kmh 30.21 in1023.0 mb 0.00 in0.0 mm 0.00 in0.0 mm 0.00 in0.0 mm
04:05 AM 26.1°F-3.3°C 15.8°F-9.0°C 69% 10.2 mph E16.4 kmh E 14.5 mph23.3 kmh 30.21 in1023.0 mb 0.00 in0.0 mm 0.00 in0.0 mm 0.00 in0.0 mm
04:10 AM 26.1°F-3.3°C 15.8°F-9.0°C 68% 9.6 mph ENE15.4 kmh ENE 14.8 mph23.8 kmh 30.21 in1023.0 mb 0.00 in0.0 mm 0.00 in0.0 mm 0.00 in0.0 mm
04:15 AM 26.1°F-3.3°C 15.8°F-9.0°C 68% 10.9 mph NE17.5 kmh NE 17.4 mph28.0 kmh 30.21 in1023.0 mb 0.00 in0.0 mm 0.00 in0.0 mm 0.00 in0.0 mm
04:20 AM 26.1°F-3.3°C 15.8°F-9.0°C 69% 11.0 mph ENE17.7 kmh ENE 17.4 mph28.0 kmh 30.21 in1023.0 mb 0.00 in0.0 mm 0.00 in0.0 mm 0.00 in0.0 mm
04:25 AM 26.1°F-3.3°C 15.8°F-9.0°C 69% 10.5 mph ENE16.9 kmh ENE 16.6 mph26.7 kmh 30.18 in1022.0 mb 0.00 in0.0 mm 0.00 in0.0 mm 0.00 in0.0 mm
04:30 AM 26.2°F-3.2°C 15.8°F-9.0°C 69% 9.2 mph ENE14.8 kmh ENE 13.0 mph20.9 kmh 30.18 in1022.0 mb 0.00 in0.0 mm 0.00 in0.0 mm 0.00 in0.0 mm
04:35 AM 26.2°F-3.2°C 15.8°F-9.0°C 70% 7.0 mph NE11.3 kmh NE 12.3 mph19.8 kmh 30.18 in1022.0 mb 0.00 in0.0 mm 0.00 in0.0 mm 0.00 in0.0 mm
04:40 AM 26.2°F-3.2°C 15.8°F-9.0°C 69% 4.9 mph NE7.9 kmh NE 7.6 mph12.2 kmh 30.18 in1022.0 mb 0.00 in0.0 mm 0.00 in0.0 mm 0.00 in0.0 mm
04:45 AM 26.1°F-3.3°C 15.8°F-9.0°C 69% 4.4 mph NE7.1 kmh NE 7.6 mph12.2 kmh 30.18 in1022.0 mb 0.00 in0.0 mm 0.00 in0.0 mm 0.00 in0.0 mm
04:50 AM 26.1°F-3.3°C 15.8°F-9.0°C 69% 5.5 mph NE8.9 kmh NE 10.5 mph16.9 kmh 30.18 in1022.0 mb 0.00 in0.0 mm 0.00 in0.0 mm 0.00 in0.0 mm
04:55 AM 26.4°F-3.1°C 15.8°F-9.0°C 69% 7.5 mph ENE12.1 kmh ENE 14.5 mph23.3 kmh 30.18 in1022.0 mb 0.00 in0.0 mm 0.00 in0.0 mm 0.00 in0.0 mm
05:00 AM 26.6°F-3.0°C 15.8°F-9.0°C 68% 8.6 mph E13.8 kmh E 14.5 mph23.3 kmh 30.18 in1022.0 mb 0.00 in0.0 mm 0.00 in0.0 mm 0.00 in0.0 mm
05:05 AM 26.6°F-3.0°C 15.8°F-9.0°C 68% 11.0 mph E17.7 kmh E 16.6 mph26.7 kmh 30.18 in1022.0 mb 0.00 in0.0 mm 0.00 in0.0 mm 0.00 in0.0 mm
05:10 AM 26.8°F-2.9°C 15.8°F-9.0°C 67% 11.8 mph E19.0 kmh E 16.6 mph26.7 kmh 30.18 in1022.0 mb 0.00 in0.0 mm 0.00 in0.0 mm 0.00 in0.0 mm
05:15 AM 26.6°F-3.0°C 15.8°F-9.0°C 67% 8.4 mph E13.5 kmh E 13.2 mph21.2 kmh 30.18 in1022.0 mb 0.00 in0.0 mm 0.00 in0.0 mm 0.00 in0.0 mm
05:20 AM 26.4°F-3.1°C 15.8°F-9.0°C 68% 6.0 mph E9.7 kmh E 10.1 mph16.3 kmh 30.18 in1022.0 mb 0.00 in0.0 mm 0.00 in0.0 mm 0.00 in0.0 mm
05:25 AM 26.6°F-3.0°C 15.8°F-9.0°C 68% 4.9 mph E7.9 kmh E 10.1 mph16.3 kmh 30.18 in1022.0 mb 0.00 in0.0 mm 0.00 in0.0 mm 0.00 in0.0 mm
05:30 AM 27.0°F-2.8°C 15.8°F-9.0°C 68% 7.8 mph E12.6 kmh E 15.7 mph25.3 kmh 30.18 in1022.0 mb 0.00 in0.0 mm 0.00 in0.0 mm 0.00 in0.0 mm
05:35 AM 26.8°F-2.9°C 15.8°F-9.0°C 68% 10.5 mph E16.9 kmh E 15.7 mph25.3 kmh 30.18 in1022.0 mb 0.00 in0.0 mm 0.00 in0.0 mm 0.00 in0.0 mm
05:40 AM 26.8°F-2.9°C 15.8°F-9.0°C 68% 7.8 mph ESE12.6 kmh ESE 13.2 mph21.2 kmh 30.18 in1022.0 mb 0.00 in0.0 mm 0.00 in0.0 mm 0.00 in0.0 mm
05:45 AM 26.4°F-3.1°C 15.8°F-9.0°C 68% 5.8 mph E9.3 kmh E 9.6 mph15.4 kmh 30.18 in1022.0 mb 0.00 in0.0 mm 0.00 in0.0 mm 0.00 in0.0 mm
05:50 AM 26.4°F-3.1°C 15.8°F-9.0°C 68% 6.2 mph E10.0 kmh E 9.6 mph15.4 kmh 30.18 in1022.0 mb 0.00 in0.0 mm 0.00 in0.0 mm 0.00 in0.0 mm
05:55 AM 26.4°F-3.1°C 15.8°F-9.0°C 68% 6.6 mph ESE10.6 kmh ESE 7.6 mph12.2 kmh 30.18 in1022.0 mb 0.00 in0.0 mm 0.00 in0.0 mm 0.00 in0.0 mm
06:00 AM 26.4°F-3.1°C 15.8°F-9.0°C 68% 7.2 mph E11.6 kmh E 10.3 mph16.6 kmh 30.18 in1022.0 mb 0.00 in0.0 mm 0.00 in0.0 mm 0.00 in0.0 mm
06:05 AM 26.6°F-3.0°C 15.8°F-9.0°C 67% 8.8 mph E14.2 kmh E 12.3 mph19.8 kmh 30.18 in1022.0 mb 0.00 in0.0 mm 0.00 in0.0 mm 0.00 in0.0 mm
06:10 AM 26.4°F-3.1°C 15.8°F-9.0°C 67% 9.6 mph E15.4 kmh E 12.3 mph19.8 kmh 30.18 in1022.0 mb 0.00 in0.0 mm 0.00 in0.0 mm 0.00 in0.0 mm
06:15 AM 26.4°F-3.1°C 15.8°F-9.0°C 67% 9.3 mph E15.0 kmh E 12.1 mph19.5 kmh 30.18 in1022.0 mb 0.00 in0.0 mm 0.00 in0.0 mm 0.00 in0.0 mm
06:20 AM 26.4°F-3.1°C 15.8°F-9.0°C 67% 9.0 mph E14.5 kmh E 12.1 mph19.5 kmh 30.18 in1022.0 mb 0.00 in0.0 mm 0.00 in0.0 mm 0.00 in0.0 mm
06:25 AM 26.2°F-3.2°C 15.8°F-9.0°C 68% 7.8 mph E12.6 kmh E 10.7 mph17.2 kmh 30.18 in1022.0 mb 0.00 in0.0 mm 0.00 in0.0 mm 0.00 in0.0 mm
06:30 AM 26.1°F-3.3°C 15.8°F-9.0°C 68% 7.5 mph E12.1 kmh E 9.8 mph15.8 kmh 30.18 in1022.0 mb 0.00 in0.0 mm 0.00 in0.0 mm 0.00 in0.0 mm
06:35 AM 26.1°F-3.3°C 15.8°F-9.0°C 68% 6.8 mph E10.9 kmh E 9.8 mph15.8 kmh 30.18 in1022.0 mb 0.00 in0.0 mm 0.00 in0.0 mm 0.00 in0.0 mm
06:40 AM 26.4°F-3.1°C 15.8°F-9.0°C 68% 8.3 mph E13.4 kmh E 23.0 mph37.0 kmh 30.18 in1022.0 mb 0.00 in0.0 mm 0.00 in0.0 mm 0.00 in0.0 mm
06:45 AM 26.2°F-3.2°C 15.8°F-9.0°C 69% 15.4 mph E24.8 kmh E 26.8 mph43.1 kmh 30.21 in1023.0 mb 0.00 in0.0 mm 0.00 in0.0 mm 0.00 in0.0 mm
06:50 AM 25.9°F-3.4°C 15.8°F-9.0°C 70% 18.5 mph E29.8 kmh E 26.8 mph43.1 kmh 30.21 in1023.0 mb 0.00 in0.0 mm 0.00 in0.0 mm 0.00 in0.0 mm
06:55 AM 25.9°F-3.4°C 17.6°F-8.0°C 72% 14.5 mph ESE23.3 kmh ESE 22.4 mph36.0 kmh 30.21 in1023.0 mb 0.00 in0.0 mm 0.00 in0.0 mm 0.00 in0.0 mm
07:00 AM 26.1°F-3.3°C 17.6°F-8.0°C 72% 10.6 mph ESE17.1 kmh ESE 13.6 mph21.9 kmh 30.21 in1023.0 mb 0.00 in0.0 mm 0.00 in0.0 mm 0.00 in0.0 mm
07:05 AM 26.1°F-3.3°C 17.6°F-8.0°C 72% 5.9 mph E9.5 kmh E 13.0 mph20.9 kmh 30.21 in1023.0 mb 0.00 in0.0 mm 0.00 in0.0 mm 0.00 in0.0 mm
07:10 AM 26.2°F-3.2°C 17.6°F-8.0°C 72% 4.8 mph E7.7 kmh E 8.1 mph13.0 kmh 30.21 in1023.0 mb 0.00 in0.0 mm 0.00 in0.0 mm 0.00 in0.0 mm
07:15 AM 26.2°F-3.2°C 17.6°F-8.0°C 71% 5.5 mph E8.9 kmh E 8.9 mph14.3 kmh 30.21 in1023.0 mb 0.00 in0.0 mm 0.00 in0.0 mm 0.00 in0.0 mm
07:20 AM 26.4°F-3.1°C 17.6°F-8.0°C 71% 6.3 mph E10.1 kmh E 8.9 mph14.3 kmh 30.21 in1023.0 mb 0.00 in0.0 mm 0.00 in0.0 mm 0.00 in0.0 mm
07:25 AM 26.6°F-3.0°C 15.8°F-9.0°C 70% 6.0 mph ESE9.7 kmh ESE 8.9 mph14.3 kmh 30.21 in1023.0 mb 0.00 in0.0 mm 0.00 in0.0 mm 0.00 in0.0 mm
07:30 AM 26.8°F-2.9°C 15.8°F-9.0°C 69% 6.0 mph ESE9.7 kmh ESE 8.9 mph14.3 kmh 30.21 in1023.0 mb 0.00 in0.0 mm 0.00 in0.0 mm 0.00 in0.0 mm
07:35 AM 26.6°F-3.0°C 15.8°F-9.0°C 69% 5.7 mph E9.2 kmh E 8.7 mph14.0 kmh 30.21 in1023.0 mb 0.00 in0.0 mm 0.00 in0.0 mm 0.00 in0.0 mm
07:40 AM 26.8°F-2.9°C 15.8°F-9.0°C 68% 7.1 mph E11.4 kmh E 9.6 mph15.4 kmh 30.21 in1023.0 mb 0.00 in0.0 mm 0.00 in0.0 mm 0.00 in0.0 mm
07:45 AM 27.0°F-2.8°C 15.8°F-9.0°C 68% 12.3 mph E19.8 kmh E 21.9 mph35.2 kmh 30.21 in1023.0 mb 0.00 in0.0 mm 0.00 in0.0 mm 0.00 in0.0 mm
07:50 AM 27.0°F-2.8°C 15.8°F-9.0°C 67% 11.3 mph E18.2 kmh E 21.9 mph35.2 kmh 30.21 in1023.0 mb 0.00 in0.0 mm 0.00 in0.0 mm 0.00 in0.0 mm
07:55 AM 27.0°F-2.8°C 15.8°F-9.0°C 67% 7.0 mph E11.3 kmh E 10.3 mph16.6 kmh 30.21 in1023.0 mb 0.00 in0.0 mm 0.00 in0.0 mm 0.00 in0.0 mm
08:00 AM 27.0°F-2.8°C 15.8°F-9.0°C 66% 7.4 mph E11.9 kmh E 12.5 mph20.1 kmh 30.24 in1024.0 mb 0.00 in0.0 mm 0.00 in0.0 mm 0.00 in0.0 mm
08:05 AM 27.1°F-2.7°C 15.8°F-9.0°C 66% 8.5 mph E13.7 kmh E 13.0 mph20.9 kmh 30.24 in1024.0 mb 0.00 in0.0 mm 0.00 in0.0 mm 0.00 in0.0 mm
08:10 AM 27.1°F-2.7°C 15.8°F-9.0°C 65% 9.2 mph E14.8 kmh E 13.0 mph20.9 kmh 30.24 in1024.0 mb 0.00 in0.0 mm 0.00 in0.0 mm 0.00 in0.0 mm
08:15 AM 27.3°F-2.6°C 15.8°F-9.0°C 65% 7.8 mph E12.6 kmh E 11.0 mph17.7 kmh 30.24 in1024.0 mb 0.00 in0.0 mm 0.00 in0.0 mm 0.00 in0.0 mm
08:20 AM 27.3°F-2.6°C 15.8°F-9.0°C 66% 8.6 mph E13.8 kmh E 13.4 mph21.6 kmh 30.24 in1024.0 mb 0.00 in0.0 mm 0.00 in0.0 mm 0.00 in0.0 mm
08:25 AM 27.1°F-2.7°C 15.8°F-9.0°C 67% 7.5 mph E12.1 kmh E 13.4 mph21.6 kmh 30.24 in1024.0 mb 0.00 in0.0 mm 0.00 in0.0 mm 0.00 in0.0 mm
08:30 AM 27.5°F-2.5°C 15.8°F-9.0°C 66% 6.0 mph ESE9.7 kmh ESE 12.8 mph20.6 kmh 30.24 in1024.0 mb 0.00 in0.0 mm 0.00 in0.0 mm 0.00 in0.0 mm
08:35 AM 27.7°F-2.4°C 15.8°F-9.0°C 66% 6.4 mph ESE10.3 kmh ESE 12.8 mph20.6 kmh 30.24 in1024.0 mb 0.00 in0.0 mm 0.00 in0.0 mm 0.00 in0.0 mm
08:40 AM 27.9°F-2.3°C 15.8°F-9.0°C 65% 8.0 mph E12.9 kmh E 15.4 mph24.8 kmh 30.24 in1024.0 mb 0.00 in0.0 mm 0.00 in0.0 mm 0.00 in0.0 mm
08:45 AM 28.0°F-2.2°C 15.8°F-9.0°C 65% 8.9 mph E14.3 kmh E 15.4 mph24.8 kmh 30.24 in1024.0 mb 0.00 in0.0 mm 0.00 in0.0 mm 0.00 in0.0 mm
08:50 AM 28.2°F-2.1°C 15.8°F-9.0°C 64% 7.3 mph E11.7 kmh E 13.4 mph21.6 kmh 30.24 in1024.0 mb 0.00 in0.0 mm 0.00 in0.0 mm 0.00 in0.0 mm
08:55 AM 28.6°F-1.9°C 15.8°F-9.0°C 63% 7.8 mph SE12.6 kmh SE 13.9 mph22.4 kmh 30.24 in1024.0 mb 0.00 in0.0 mm 0.00 in0.0 mm 0.00 in0.0 mm
09:00 AM 28.8°F-1.8°C 15.8°F-9.0°C 62% 8.5 mph SE13.7 kmh SE 13.9 mph22.4 kmh 30.27 in1025.1 mb 0.00 in0.0 mm 0.00 in0.0 mm 0.00 in0.0 mm
09:05 AM 28.6°F-1.9°C 15.8°F-9.0°C 62% 8.2 mph ESE13.2 kmh ESE 14.8 mph23.8 kmh 30.27 in1025.1 mb 0.00 in0.0 mm 0.00 in0.0 mm 0.00 in0.0 mm
09:10 AM 28.8°F-1.8°C 15.8°F-9.0°C 62% 8.8 mph E14.2 kmh E 14.8 mph23.8 kmh 30.27 in1025.1 mb 0.00 in0.0 mm 0.00 in0.0 mm 0.00 in0.0 mm
09:15 AM 29.3°F-1.5°C 15.8°F-9.0°C 62% 8.5 mph ENE13.7 kmh ENE 12.5 mph20.1 kmh 30.27 in1025.1 mb 0.00 in0.0 mm 0.00 in0.0 mm 0.00 in0.0 mm
09:20 AM 29.7°F-1.3°C 15.8°F-9.0°C 61% 9.2 mph E14.8 kmh E 12.8 mph20.6 kmh 30.27 in1025.1 mb 0.00 in0.0 mm 0.00 in0.0 mm 0.00 in0.0 mm
09:25 AM 29.7°F-1.3°C 15.8°F-9.0°C 61% 9.4 mph E15.1 kmh E 12.8 mph20.6 kmh 30.27 in1025.1 mb 0.00 in0.0 mm 0.00 in0.0 mm 0.00 in0.0 mm
09:30 AM 29.1°F-1.6°C 15.8°F-9.0°C 61% 8.3 mph E13.4 kmh E 12.8 mph20.6 kmh 30.27 in1025.1 mb 0.00 in0.0 mm 0.00 in0.0 mm 0.00 in0.0 mm
09:35 AM 29.1°F-1.6°C 15.8°F-9.0°C 61% 6.9 mph E11.1 kmh E 10.3 mph16.6 kmh 30.27 in1025.1 mb 0.00 in0.0 mm 0.00 in0.0 mm 0.00 in0.0 mm
09:40 AM 29.7°F-1.3°C 15.8°F-9.0°C 61% 5.7 mph E9.2 kmh E 8.1 mph13.0 kmh 30.27 in1025.1 mb 0.00 in0.0 mm 0.00 in0.0 mm 0.00 in0.0 mm
09:45 AM 29.3°F-1.5°C 15.8°F-9.0°C 61% 5.3 mph E8.5 kmh E 8.1 mph13.0 kmh 30.27 in1025.1 mb 0.00 in0.0 mm 0.00 in0.0 mm 0.00 in0.0 mm
09:50 AM 28.8°F-1.8°C 15.8°F-9.0°C 61% 3.3 mph E5.3 kmh E 7.8 mph12.6 kmh 30.27 in1025.1 mb 0.00 in0.0 mm 0.00 in0.0 mm 0.00 in0.0 mm
09:55 AM 28.9°F-1.7°C 15.8°F-9.0°C 62% 3.4 mph E5.5 kmh E 6.0 mph9.7 kmh 30.27 in1025.1 mb 0.00 in0.0 mm 0.00 in0.0 mm 0.00 in0.0 mm
10:00 AM 29.1°F-1.6°C 15.8°F-9.0°C 62% 4.3 mph E6.9 kmh E 6.0 mph9.7 kmh 30.27 in1025.1 mb 0.00 in0.0 mm 0.00 in0.0 mm 0.00 in0.0 mm
10:05 AM 29.3°F-1.5°C 15.8°F-9.0°C 62% 4.2 mph E6.8 kmh E 6.0 mph9.7 kmh 30.27 in1025.1 mb 0.00 in0.0 mm 0.00 in0.0 mm 0.00 in0.0 mm
10:10 AM 28.9°F-1.7°C 15.8°F-9.0°C 62% 4.4 mph E7.1 kmh E 6.0 mph9.7 kmh 30.27 in1025.1 mb 0.00 in0.0 mm 0.00 in0.0 mm 0.00 in0.0 mm
10:15 AM 30.0°F-1.1°C 15.8°F-9.0°C 61% 6.1 mph E9.8 kmh E 11.0 mph17.7 kmh 30.27 in1025.1 mb 0.00 in0.0 mm 0.00 in0.0 mm 0.00 in0.0 mm
10:20 AM 30.2°F-1.0°C 15.8°F-9.0°C 60% 8.8 mph E14.2 kmh E 11.0 mph17.7 kmh 30.27 in1025.1 mb 0.00 in0.0 mm 0.00 in0.0 mm 0.00 in0.0 mm
10:25 AM 30.2°F-1.0°C 15.8°F-9.0°C 59% 9.8 mph ENE15.8 kmh ENE 14.8 mph23.8 kmh 30.27 in1025.1 mb 0.00 in0.0 mm 0.00 in0.0 mm 0.00 in0.0 mm
10:30 AM 30.7°F-0.7°C 15.8°F-9.0°C 58% 10.4 mph ENE16.7 kmh ENE 14.8 mph23.8 kmh 30.27 in1025.1 mb 0.00 in0.0 mm 0.00 in0.0 mm 0.00 in0.0 mm
10:35 AM 31.3°F-0.4°C 15.8°F-9.0°C 57% 9.4 mph E15.1 kmh E 15.4 mph24.8 kmh 30.27 in1025.1 mb 0.00 in0.0 mm 0.00 in0.0 mm 0.00 in0.0 mm
10:40 AM 32.4°F0.2°C 15.8°F-9.0°C 56% 11.4 mph E18.3 kmh E 19.5 mph31.4 kmh 30.27 in1025.1 mb 0.00 in0.0 mm 0.00 in0.0 mm 0.00 in0.0 mm
10:45 AM 32.4°F0.2°C 15.8°F-9.0°C 56% 15.0 mph ESE24.1 kmh ESE 26.8 mph43.1 kmh 30.27 in1025.1 mb 0.00 in0.0 mm 0.00 in0.0 mm 0.00 in0.0 mm
10:50 AM 33.4°F0.8°C 19.4°F-7.0°C 55% 12.7 mph ESE20.4 kmh ESE 26.8 mph43.1 kmh 30.27 in1025.1 mb 0.00 in0.0 mm 0.00 in0.0 mm 0.00 in0.0 mm
10:55 AM 32.7°F0.4°C 17.6°F-8.0°C 55% 10.6 mph ESE17.1 kmh ESE 17.7 mph28.5 kmh 30.27 in1025.1 mb 0.00 in0.0 mm 0.00 in0.0 mm 0.00 in0.0 mm
11:00 AM 33.3°F0.7°C 19.4°F-7.0°C 55% 12.1 mph E19.5 kmh E 17.7 mph28.5 kmh 30.30 in1026.1 mb 0.00 in0.0 mm 0.00 in0.0 mm 0.00 in0.0 mm
11:05 AM 33.1°F0.6°C 19.4°F-7.0°C 54% 11.0 mph E17.7 kmh E 14.3 mph23.0 kmh 30.30 in1026.1 mb 0.00 in0.0 mm 0.00 in0.0 mm 0.00 in0.0 mm
11:10 AM 35.1°F1.7°C 21.2°F-6.0°C 54% 10.1 mph E16.3 kmh E 17.7 mph28.5 kmh 30.30 in1026.1 mb 0.00 in0.0 mm 0.00 in0.0 mm 0.00 in0.0 mm
11:15 AM 35.4°F1.9°C 19.4°F-7.0°C 53% 9.7 mph ESE15.6 kmh ESE 17.7 mph28.5 kmh 30.30 in1026.1 mb 0.00 in0.0 mm 0.00 in0.0 mm 0.00 in0.0 mm
11:20 AM 33.4°F0.8°C 19.4°F-7.0°C 53% 7.0 mph SSE11.3 kmh SSE 10.5 mph16.9 kmh 30.30 in1026.1 mb 0.00 in0.0 mm 0.00 in0.0 mm 0.00 in0.0 mm
11:25 AM 36.3°F2.4°C 21.2°F-6.0°C 52% 7.1 mph SE11.4 kmh SE 10.3 mph16.6 kmh 30.30 in1026.1 mb 0.00 in0.0 mm 0.00 in0.0 mm 0.00 in0.0 mm
11:30 AM 37.0°F2.8°C 21.2°F-6.0°C 51% 10.0 mph ESE16.1 kmh ESE 17.7 mph28.5 kmh 30.30 in1026.1 mb 0.00 in0.0 mm 0.00 in0.0 mm 0.00 in0.0 mm
11:35 AM 37.0°F2.8°C 21.2°F-6.0°C 51% 9.7 mph ESE15.6 kmh ESE 17.7 mph28.5 kmh 30.30 in1026.1 mb 0.00 in0.0 mm 0.00 in0.0 mm 0.00 in0.0 mm
11:40 AM 36.5°F2.5°C 21.2°F-6.0°C 51% 7.7 mph ESE12.4 kmh ESE 14.8 mph23.8 kmh 30.30 in1026.1 mb 0.00 in0.0 mm 0.00 in0.0 mm 0.00 in0.0 mm
11:45 AM 37.0°F2.8°C 21.2°F-6.0°C 51% 8.3 mph E13.4 kmh E 14.8 mph23.8 kmh 30.30 in1026.1 mb 0.00 in0.0 mm 0.00 in0.0 mm 0.00 in0.0 mm
11:50 AM 37.4°F3.0°C 21.2°F-6.0°C 50% 10.7 mph E17.2 kmh E 16.6 mph26.7 kmh 30.30 in1026.1 mb 0.00 in0.0 mm 0.00 in0.0 mm 0.00 in0.0 mm
11:55 AM 37.4°F3.0°C 21.2°F-6.0°C 50% 11.9 mph E19.2 kmh E 16.6 mph26.7 kmh 30.30 in1026.1 mb 0.00 in0.0 mm 0.00 in0.0 mm 0.00 in0.0 mm
12:00 PM 38.1°F3.4°C 21.2°F-6.0°C 50% 8.8 mph E14.2 kmh E 16.6 mph26.7 kmh 30.30 in1026.1 mb 0.00 in0.0 mm 0.00 in0.0 mm 0.00 in0.0 mm
12:05 PM 35.4°F1.9°C 17.6°F-8.0°C 49% 7.5 mph SE12.1 kmh SE 15.4 mph24.8 kmh 30.30 in1026.1 mb 0.00 in0.0 mm 0.00 in0.0 mm 0.00 in0.0 mm
12:10 PM 33.8°F1.0°C 17.6°F-8.0°C 49% 8.9 mph SE14.3 kmh SE 15.4 mph24.8 kmh 30.30 in1026.1 mb 0.00 in0.0 mm 0.00 in0.0 mm 0.00 in0.0 mm
12:15 PM 34.2°F1.2°C 17.6°F-8.0°C 50% 9.0 mph ESE14.5 kmh ESE 15.4 mph24.8 kmh 30.30 in1026.1 mb 0.00 in0.0 mm 0.00 in0.0 mm 0.00 in0.0 mm
12:20 PM 34.5°F1.4°C 17.6°F-8.0°C 50% 10.4 mph E16.7 kmh E 21.9 mph35.2 kmh 30.30 in1026.1 mb 0.00 in0.0 mm 0.00 in0.0 mm 0.00 in0.0 mm
12:25 PM 36.7°F2.6°C 19.4°F-7.0°C 49% 12.1 mph E19.5 kmh E 22.1 mph35.6 kmh 30.30 in1026.1 mb 0.00 in0.0 mm 0.00 in0.0 mm 0.00 in0.0 mm
12:30 PM 35.1°F1.7°C 17.6°F-8.0°C 49% 12.9 mph E20.8 kmh E 22.1 mph35.6 kmh 30.30 in1026.1 mb 0.00 in0.0 mm 0.00 in0.0 mm 0.00 in0.0 mm
12:35 PM 35.6°F2.0°C 17.6°F-8.0°C 49% 14.3 mph E23.0 kmh E 21.5 mph34.6 kmh 30.30 in1026.1 mb 0.00 in0.0 mm 0.00 in0.0 mm 0.00 in0.0 mm
12:40 PM 35.6°F2.0°C 17.6°F-8.0°C 48% 14.0 mph E22.5 kmh E 21.5 mph34.6 kmh 30.30 in1026.1 mb 0.00 in0.0 mm 0.00 in0.0 mm 0.00 in0.0 mm
12:45 PM 34.5°F1.4°C 17.6°F-8.0°C 48% 11.1 mph E17.9 kmh E 19.7 mph31.7 kmh 30.30 in1026.1 mb 0.00 in0.0 mm 0.00 in0.0 mm 0.00 in0.0 mm
12:50 PM 35.4°F1.9°C 17.6°F-8.0°C 48% 9.0 mph SE14.5 kmh SE 19.7 mph31.7 kmh 30.30 in1026.1 mb 0.00 in0.0 mm 0.00 in0.0 mm 0.00 in0.0 mm
12:55 PM 34.2°F1.2°C 15.8°F-9.0°C 48% 11.6 mph E18.7 kmh E 19.9 mph32.0 kmh 30.30 in1026.1 mb 0.00 in0.0 mm 0.00 in0.0 mm 0.00 in0.0 mm
01:00 PM 34.5°F1.4°C 15.8°F-9.0°C 47% 12.2 mph E19.6 kmh E 19.9 mph32.0 kmh 30.30 in1026.1 mb 0.00 in0.0 mm 0.00 in0.0 mm 0.00 in0.0 mm
01:05 PM 34.2°F1.2°C 15.8°F-9.0°C 47% 9.4 mph E15.1 kmh E 16.3 mph26.2 kmh 30.30 in1026.1 mb 0.00 in0.0 mm 0.00 in0.0 mm 0.00 in0.0 mm
01:10 PM 34.3°F1.3°C 15.8°F-9.0°C 47% 10.7 mph E17.2 kmh E 16.3 mph26.2 kmh 30.30 in1026.1 mb 0.00 in0.0 mm 0.00 in0.0 mm 0.00 in0.0 mm
01:15 PM 32.5°F0.3°C 14.0°F-10.0°C 47% 11.3 mph SE18.2 kmh SE 23.7 mph38.1 kmh 30.30 in1026.1 mb 0.00 in0.0 mm 0.00 in0.0 mm 0.00 in0.0 mm
01:20 PM 34.2°F1.2°C 15.8°F-9.0°C 47% 11.1 mph ESE17.9 kmh ESE 23.7 mph38.1 kmh 30.30 in1026.1 mb 0.00 in0.0 mm 0.00 in0.0 mm 0.00 in0.0 mm
01:25 PM 34.9°F1.6°C 15.8°F-9.0°C 47% 9.6 mph E15.4 kmh E 14.1 mph22.7 kmh 30.30 in1026.1 mb 0.00 in0.0 mm 0.00 in0.0 mm 0.00 in0.0 mm
01:30 PM 35.4°F1.9°C 17.6°F-8.0°C 47% 8.2 mph E13.2 kmh E 13.4 mph21.6 kmh 30.30 in1026.1 mb 0.00 in0.0 mm 0.00 in0.0 mm 0.00 in0.0 mm
01:35 PM 35.1°F1.7°C 17.6°F-8.0°C 47% 8.1 mph E13.0 kmh E 13.2 mph21.2 kmh 30.30 in1026.1 mb 0.00 in0.0 mm 0.00 in0.0 mm 0.00 in0.0 mm
01:40 PM 34.0°F1.1°C 15.8°F-9.0°C 46% 9.1 mph E14.6 kmh E 13.2 mph21.2 kmh 30.30 in1026.1 mb 0.00 in0.0 mm 0.00 in0.0 mm 0.00 in0.0 mm
01:45 PM 34.5°F1.4°C 15.8°F-9.0°C 46% 7.3 mph ESE11.7 kmh ESE 10.5 mph16.9 kmh 30.30 in1026.1 mb 0.00 in0.0 mm 0.00 in0.0 mm 0.00 in0.0 mm
01:50 PM 34.2°F1.2°C 15.8°F-9.0°C 46% 6.3 mph ESE10.1 kmh ESE 10.3 mph16.6 kmh 30.30 in1026.1 mb 0.00 in0.0 mm 0.00 in0.0 mm 0.00 in0.0 mm
01:55 PM 33.6°F0.9°C 14.0°F-10.0°C 45% 9.5 mph E15.3 kmh E 17.2 mph27.7 kmh 30.30 in1026.1 mb 0.00 in0.0 mm 0.00 in0.0 mm 0.00 in0.0 mm
02:00 PM 34.3°F1.3°C 15.8°F-9.0°C 46% 9.8 mph E15.8 kmh E 17.2 mph27.7 kmh 30.30 in1026.1 mb 0.00 in0.0 mm 0.00 in0.0 mm 0.00 in0.0 mm
02:05 PM 34.2°F1.2°C 15.8°F-9.0°C 46% 9.8 mph E15.8 kmh E 17.4 mph28.0 kmh 30.30 in1026.1 mb 0.00 in0.0 mm 0.00 in0.0 mm 0.00 in0.0 mm
02:10 PM 33.3°F0.7°C 15.8°F-9.0°C 46% 8.4 mph ESE13.5 kmh ESE 17.4 mph28.0 kmh 30.30 in1026.1 mb 0.00 in0.0 mm 0.00 in0.0 mm 0.00 in0.0 mm
02:15 PM 33.6°F0.9°C 15.8°F-9.0°C 46% 8.1 mph E13.0 kmh E 17.7 mph28.5 kmh 30.30 in1026.1 mb 0.00 in0.0 mm 0.00 in0.0 mm 0.00 in0.0 mm
02:20 PM 33.1°F0.6°C 14.0°F-10.0°C 46% 9.4 mph E15.1 kmh E 17.7 mph28.5 kmh 30.30 in1026.1 mb 0.00 in0.0 mm 0.00 in0.0 mm 0.00 in0.0 mm
02:25 PM 34.2°F1.2°C 15.8°F-9.0°C 47% 7.6 mph E12.2 kmh E 14.3 mph23.0 kmh 30.30 in1026.1 mb 0.00 in0.0 mm 0.00 in0.0 mm 0.00 in0.0 mm
02:30 PM 33.8°F1.0°C 15.8°F-9.0°C 46% 8.4 mph ESE13.5 kmh ESE 15.9 mph25.6 kmh 30.30 in1026.1 mb 0.00 in0.0 mm 0.00 in0.0 mm 0.00 in0.0 mm
02:35 PM 32.7°F0.4°C 14.0°F-10.0°C 45% 9.4 mph SE15.1 kmh SE 15.9 mph25.6 kmh 30.30 in1026.1 mb 0.00 in0.0 mm 0.00 in0.0 mm 0.00 in0.0 mm
02:40 PM 32.9°F0.5°C 14.0°F-10.0°C 46% 9.4 mph E15.1 kmh E 15.9 mph25.6 kmh 30.30 in1026.1 mb 0.00 in0.0 mm 0.00 in0.0 mm 0.00 in0.0 mm
02:45 PM 33.4°F0.8°C 15.8°F-9.0°C 46% 7.7 mph E12.4 kmh E 13.4 mph21.6 kmh 30.27 in1025.1 mb 0.00 in0.0 mm 0.00 in0.0 mm 0.00 in0.0 mm
02:50 PM 33.4°F0.8°C 15.8°F-9.0°C 46% 6.2 mph E10.0 kmh E 10.5 mph16.9 kmh 30.27 in1025.1 mb 0.00 in0.0 mm 0.00 in0.0 mm 0.00 in0.0 mm
02:55 PM 32.4°F0.2°C 12.2°F-11.0°C 46% 9.3 mph ESE15.0 kmh ESE 19.5 mph31.4 kmh 30.27 in1025.1 mb 0.00 in0.0 mm 0.00 in0.0 mm 0.00 in0.0 mm
03:00 PM 32.0°F0.0°C 12.2°F-11.0°C 46% 10.8 mph ESE17.4 kmh ESE 25.3 mph40.7 kmh 30.27 in1025.1 mb 0.00 in0.0 mm 0.00 in0.0 mm 0.00 in0.0 mm
03:05 PM 31.8°F-0.1°C 12.2°F-11.0°C 47% 10.9 mph E17.5 kmh E 25.3 mph40.7 kmh 30.27 in1025.1 mb 0.00 in0.0 mm 0.00 in0.0 mm 0.00 in0.0 mm
03:10 PM 31.8°F-0.1°C 12.2°F-11.0°C 47% 10.3 mph E16.6 kmh E 15.9 mph25.6 kmh 30.27 in1025.1 mb 0.00 in0.0 mm 0.00 in0.0 mm 0.00 in0.0 mm
03:15 PM 32.4°F0.2°C 14.0°F-10.0°C 48% 9.7 mph E15.6 kmh E 12.8 mph20.6 kmh 30.27 in1025.1 mb 0.00 in0.0 mm 0.00 in0.0 mm 0.00 in0.0 mm
03:20 PM 32.9°F0.5°C 15.8°F-9.0°C 48% 9.8 mph E15.8 kmh E 12.5 mph20.1 kmh 30.27 in1025.1 mb 0.00 in0.0 mm 0.00 in0.0 mm 0.00 in0.0 mm
03:25 PM 32.4°F0.2°C 14.0°F-10.0°C 49% 9.0 mph E14.5 kmh E 16.3 mph26.2 kmh 30.27 in1025.1 mb 0.00 in0.0 mm 0.00 in0.0 mm 0.00 in0.0 mm
03:30 PM 32.0°F0.0°C 14.0°F-10.0°C 49% 7.7 mph ESE12.4 kmh ESE 16.3 mph26.2 kmh 30.27 in1025.1 mb 0.00 in0.0 mm 0.00 in0.0 mm 0.00 in0.0 mm
03:35 PM 31.6°F-0.2°C 14.0°F-10.0°C 50% 7.5 mph ESE12.1 kmh ESE 12.5 mph20.1 kmh 30.27 in1025.1 mb 0.00 in0.0 mm 0.00 in0.0 mm 0.00 in0.0 mm
03:40 PM 31.3°F-0.4°C 14.0°F-10.0°C 50% 7.3 mph ESE11.7 kmh ESE 10.3 mph16.6 kmh 30.27 in1025.1 mb 0.00 in0.0 mm 0.00 in0.0 mm 0.00 in0.0 mm
03:45 PM 30.6°F-0.8°C 14.0°F-10.0°C 51% 9.6 mph E15.4 kmh E 17.2 mph27.7 kmh 30.27 in1025.1 mb 0.00 in0.0 mm 0.00 in0.0 mm 0.00 in0.0 mm
03:50 PM 30.2°F-1.0°C 12.2°F-11.0°C 51% 11.0 mph E17.7 kmh E 17.2 mph27.7 kmh 30.27 in1025.1 mb 0.00 in0.0 mm 0.00 in0.0 mm 0.00 in0.0 mm
03:55 PM 30.2°F-1.0°C 12.2°F-11.0°C 51% 11.1 mph ESE17.9 kmh ESE 17.2 mph27.7 kmh 30.27 in1025.1 mb 0.00 in0.0 mm 0.00 in0.0 mm 0.00 in0.0 mm
04:00 PM 30.7°F-0.7°C 14.0°F-10.0°C 52% 10.7 mph E17.2 kmh E 18.8 mph30.3 kmh 30.27 in1025.1 mb 0.00 in0.0 mm 0.00 in0.0 mm 0.00 in0.0 mm
04:05 PM 29.5°F-1.4°C 14.0°F-10.0°C 53% 12.5 mph E20.1 kmh E 18.8 mph30.3 kmh 30.27 in1025.1 mb 0.00 in0.0 mm 0.00 in0.0 mm 0.00 in0.0 mm
04:10 PM 28.8°F-1.8°C 12.2°F-11.0°C 55% 12.7 mph E20.4 kmh E 17.0 mph27.4 kmh 30.27 in1025.1 mb 0.00 in0.0 mm 0.00 in0.0 mm 0.00 in0.0 mm
04:15 PM 28.4°F-2.0°C 12.2°F-11.0°C 55% 10.2 mph E16.4 kmh E 17.0 mph27.4 kmh 30.24 in1024.0 mb 0.00 in0.0 mm 0.00 in0.0 mm 0.00 in0.0 mm
04:20 PM 28.8°F-1.8°C 12.2°F-11.0°C 55% 7.5 mph E12.1 kmh E 13.0 mph20.9 kmh 30.24 in1024.0 mb 0.00 in0.0 mm 0.00 in0.0 mm 0.00 in0.0 mm
04:25 PM 30.0°F-1.1°C 14.0°F-10.0°C 55% 7.7 mph E12.4 kmh E 12.1 mph19.5 kmh 30.24 in1024.0 mb 0.00 in0.0 mm 0.00 in0.0 mm 0.00 in0.0 mm
04:30 PM 29.5°F-1.4°C 14.0°F-10.0°C 55% 10.5 mph E16.9 kmh E 17.0 mph27.4 kmh 30.24 in1024.0 mb 0.00 in0.0 mm 0.00 in0.0 mm 0.00 in0.0 mm
04:35 PM 28.8°F-1.8°C 14.0°F-10.0°C 56% 12.2 mph ESE19.6 kmh ESE 17.0 mph27.4 kmh 30.24 in1024.0 mb 0.00 in0.0 mm 0.00 in0.0 mm 0.00 in0.0 mm
04:40 PM 28.6°F-1.9°C 14.0°F-10.0°C 56% 9.6 mph SE15.4 kmh SE 16.6 mph26.7 kmh 30.24 in1024.0 mb 0.00 in0.0 mm 0.00 in0.0 mm 0.00 in0.0 mm
04:45 PM 28.4°F-2.0°C 14.0°F-10.0°C 56% 7.7 mph E12.4 kmh E 13.2 mph21.2 kmh 30.24 in1024.0 mb 0.00 in0.0 mm 0.00 in0.0 mm 0.00 in0.0 mm
04:50 PM 27.9°F-2.3°C 12.2°F-11.0°C 57% 6.5 mph SE10.5 kmh SE 13.2 mph21.2 kmh 30.24 in1024.0 mb 0.00 in0.0 mm 0.00 in0.0 mm 0.00 in0.0 mm
04:55 PM 27.7°F-2.4°C 12.2°F-11.0°C 57% 5.7 mph E9.2 kmh E 8.1 mph13.0 kmh 30.24 in1024.0 mb 0.00 in0.0 mm 0.00 in0.0 mm 0.00 in0.0 mm
05:00 PM 27.5°F-2.5°C 12.2°F-11.0°C 57% 8.3 mph E13.4 kmh E 16.1 mph25.9 kmh 30.24 in1024.0 mb 0.00 in0.0 mm 0.00 in0.0 mm 0.00 in0.0 mm
05:05 PM 27.5°F-2.5°C 12.2°F-11.0°C 56% 10.0 mph E16.1 kmh E 16.1 mph25.9 kmh 30.24 in1024.0 mb 0.00 in0.0 mm 0.00 in0.0 mm 0.00 in0.0 mm
05:10 PM 27.3°F-2.6°C 12.2°F-11.0°C 57% 10.6 mph E17.1 kmh E 15.4 mph24.8 kmh 30.24 in1024.0 mb 0.00 in0.0 mm 0.00 in0.0 mm 0.00 in0.0 mm
05:15 PM 27.0°F-2.8°C 12.2°F-11.0°C 58% 11.2 mph E18.0 kmh E 14.3 mph23.0 kmh 30.21 in1023.0 mb 0.00 in0.0 mm 0.00 in0.0 mm 0.00 in0.0 mm
05:20 PM 26.8°F-2.9°C 14.0°F-10.0°C 60% 11.5 mph E18.5 kmh E 14.3 mph23.0 kmh 30.21 in1023.0 mb 0.00 in0.0 mm 0.00 in0.0 mm 0.00 in0.0 mm
05:25 PM 26.8°F-2.9°C 14.0°F-10.0°C 60% 10.5 mph E16.9 kmh E 13.0 mph20.9 kmh 30.21 in1023.0 mb 0.00 in0.0 mm 0.00 in0.0 mm 0.00 in0.0 mm
05:30 PM 26.8°F-2.9°C 14.0°F-10.0°C 60% 10.5 mph E16.9 kmh E 16.8 mph27.0 kmh 30.21 in1023.0 mb 0.00 in0.0 mm 0.00 in0.0 mm 0.00 in0.0 mm
05:35 PM 26.4°F-3.1°C 14.0°F-10.0°C 60% 10.7 mph E17.2 kmh E 16.8 mph27.0 kmh 30.21 in1023.0 mb 0.00 in0.0 mm 0.00 in0.0 mm 0.00 in0.0 mm
05:40 PM 26.1°F-3.3°C 12.2°F-11.0°C 60% 12.5 mph ESE20.1 kmh ESE 17.4 mph28.0 kmh 30.21 in1023.0 mb 0.00 in0.0 mm 0.00 in0.0 mm 0.00 in0.0 mm
05:45 PM 26.1°F-3.3°C 12.2°F-11.0°C 60% 12.9 mph ESE20.8 kmh ESE 17.4 mph28.0 kmh 30.21 in1023.0 mb 0.00 in0.0 mm 0.00 in0.0 mm 0.00 in0.0 mm
05:50 PM 26.2°F-3.2°C 14.0°F-10.0°C 60% 10.8 mph E17.4 kmh E 15.4 mph24.8 kmh 30.21 in1023.0 mb 0.00 in0.0 mm 0.00 in0.0 mm 0.00 in0.0 mm
05:55 PM 26.2°F-3.2°C 14.0°F-10.0°C 61% 10.0 mph E16.1 kmh E 15.4 mph24.8 kmh 30.21 in1023.0 mb 0.00 in0.0 mm 0.00 in0.0 mm 0.00 in0.0 mm
06:00 PM 26.4°F-3.1°C 14.0°F-10.0°C 61% 8.7 mph E14.0 kmh E 11.0 mph17.7 kmh 30.21 in1023.0 mb 0.00 in0.0 mm 0.00 in0.0 mm 0.00 in0.0 mm
06:05 PM 25.9°F-3.4°C 14.0°F-10.0°C 62% 9.3 mph E15.0 kmh E 15.2 mph24.5 kmh 30.21 in1023.0 mb 0.00 in0.0 mm 0.00 in0.0 mm 0.00 in0.0 mm
06:10 PM 25.9°F-3.4°C 14.0°F-10.0°C 63% 11.5 mph ENE18.5 kmh ENE 23.0 mph37.0 kmh 30.21 in1023.0 mb 0.00 in0.0 mm 0.00 in0.0 mm 0.00 in0.0 mm
06:15 PM 25.9°F-3.4°C 14.0°F-10.0°C 63% 10.2 mph E16.4 kmh E 23.0 mph37.0 kmh 30.21 in1023.0 mb 0.00 in0.0 mm 0.00 in0.0 mm 0.00 in0.0 mm
06:20 PM 26.1°F-3.3°C 14.0°F-10.0°C 62% 8.0 mph E12.9 kmh E 12.1 mph19.5 kmh 30.21 in1023.0 mb 0.00 in0.0 mm 0.00 in0.0 mm 0.00 in0.0 mm
06:25 PM 26.1°F-3.3°C 14.0°F-10.0°C 62% 9.3 mph E15.0 kmh E 13.2 mph21.2 kmh 30.21 in1023.0 mb 0.00 in0.0 mm 0.00 in0.0 mm 0.00 in0.0 mm
06:30 PM 26.2°F-3.2°C 14.0°F-10.0°C 61% 10.1 mph E16.3 kmh E 13.2 mph21.2 kmh 30.21 in1023.0 mb 0.00 in0.0 mm 0.00 in0.0 mm 0.00 in0.0 mm
06:35 PM 26.1°F-3.3°C 12.2°F-11.0°C 60% 11.1 mph ENE17.9 kmh ENE 17.2 mph27.7 kmh 30.21 in1023.0 mb 0.00 in0.0 mm 0.00 in0.0 mm 0.00 in0.0 mm
06:40 PM 26.1°F-3.3°C 12.2°F-11.0°C 59% 13.4 mph E21.6 kmh E 18.8 mph30.3 kmh 30.21 in1023.0 mb 0.00 in0.0 mm 0.00 in0.0 mm 0.00 in0.0 mm
06:45 PM 25.7°F-3.5°C 12.2°F-11.0°C 58% 13.3 mph ESE21.4 kmh ESE 19.7 mph31.7 kmh 30.18 in1022.0 mb 0.00 in0.0 mm 0.00 in0.0 mm 0.00 in0.0 mm
06:50 PM 25.7°F-3.5°C 12.2°F-11.0°C 58% 13.0 mph E20.9 kmh E 20.1 mph32.3 kmh 30.18 in1022.0 mb 0.00 in0.0 mm 0.00 in0.0 mm 0.00 in0.0 mm
06:55 PM 25.5°F-3.6°C 12.2°F-11.0°C 58% 13.2 mph E21.2 kmh E 20.1 mph32.3 kmh 30.18 in1022.0 mb 0.00 in0.0 mm 0.00 in0.0 mm 0.00 in0.0 mm
07:00 PM 25.3°F-3.7°C 10.4°F-12.0°C 57% 10.5 mph ESE16.9 kmh ESE 13.9 mph22.4 kmh 30.18 in1022.0 mb 0.00 in0.0 mm 0.00 in0.0 mm 0.00 in0.0 mm
07:05 PM 25.2°F-3.8°C 10.4°F-12.0°C 58% 8.8 mph E14.2 kmh E 12.1 mph19.5 kmh 30.18 in1022.0 mb 0.00 in0.0 mm 0.00 in0.0 mm 0.00 in0.0 mm
07:10 PM 25.0°F-3.9°C 10.4°F-12.0°C 58% 10.3 mph E16.6 kmh E 15.2 mph24.5 kmh 30.18 in1022.0 mb 0.00 in0.0 mm 0.00 in0.0 mm 0.00 in0.0 mm
07:15 PM 25.3°F-3.7°C 12.2°F-11.0°C 58% 11.5 mph E18.5 kmh E 15.2 mph24.5 kmh 30.18 in1022.0 mb 0.00 in0.0 mm 0.00 in0.0 mm 0.00 in0.0 mm
07:20 PM 25.2°F-3.8°C 12.2°F-11.0°C 61% 11.5 mph E18.5 kmh E 16.3 mph26.2 kmh 30.18 in1022.0 mb 0.00 in0.0 mm 0.00 in0.0 mm 0.00 in0.0 mm
07:25 PM 25.0°F-3.9°C 12.2°F-11.0°C 63% 11.8 mph E19.0 kmh E 16.3 mph26.2 kmh 30.18 in1022.0 mb 0.00 in0.0 mm 0.00 in0.0 mm 0.00 in0.0 mm
07:30 PM 24.6°F-4.1°C 12.2°F-11.0°C 64% 14.2 mph E22.9 kmh E 22.8 mph36.7 kmh 30.18 in1022.0 mb 0.00 in0.0 mm 0.00 in0.0 mm 0.00 in0.0 mm
07:35 PM 24.6°F-4.1°C 14.0°F-10.0°C 65% 14.2 mph E22.9 kmh E 22.8 mph36.7 kmh 30.18 in1022.0 mb 0.00 in0.0 mm 0.00 in0.0 mm 0.00 in0.0 mm
07:40 PM 24.6°F-4.1°C 14.0°F-10.0°C 65% 11.4 mph E18.3 kmh E 17.9 mph28.8 kmh 30.18 in1022.0 mb 0.00 in0.0 mm 0.00 in0.0 mm 0.00 in0.0 mm
07:45 PM 24.6°F-4.1°C 14.0°F-10.0°C 66% 11.6 mph E18.7 kmh E 17.9 mph28.8 kmh 30.18 in1022.0 mb 0.00 in0.0 mm 0.00 in0.0 mm 0.00 in0.0 mm
07:50 PM 24.8°F-4.0°C 14.0°F-10.0°C 66% 11.9 mph E19.2 kmh E 17.0 mph27.4 kmh 30.18 in1022.0 mb 0.00 in0.0 mm 0.00 in0.0 mm 0.00 in0.0 mm
07:55 PM 24.8°F-4.0°C 14.0°F-10.0°C 66% 10.5 mph ENE16.9 kmh ENE 17.0 mph27.4 kmh 30.18 in1022.0 mb 0.00 in0.0 mm 0.00 in0.0 mm 0.00 in0.0 mm
08:00 PM 24.8°F-4.0°C 14.0°F-10.0°C 66% 8.4 mph ENE13.5 kmh ENE 13.0 mph20.9 kmh 30.18 in1022.0 mb 0.00 in0.0 mm 0.00 in0.0 mm 0.00 in0.0 mm
08:05 PM 25.0°F-3.9°C 14.0°F-10.0°C 66% 8.2 mph E13.2 kmh E 11.9 mph19.2 kmh 30.18 in1022.0 mb 0.00 in0.0 mm 0.00 in0.0 mm 0.00 in0.0 mm
08:10 PM 25.0°F-3.9°C 14.0°F-10.0°C 66% 9.5 mph E15.3 kmh E 13.6 mph21.9 kmh 30.18 in1022.0 mb 0.00 in0.0 mm 0.00 in0.0 mm 0.00 in0.0 mm
08:15 PM 24.8°F-4.0°C 14.0°F-10.0°C 65% 10.1 mph E16.3 kmh E 13.6 mph21.9 kmh 30.18 in1022.0 mb 0.00 in0.0 mm 0.00 in0.0 mm 0.00 in0.0 mm
08:20 PM 24.8°F-4.0°C 14.0°F-10.0°C 65% 9.4 mph E15.1 kmh E 13.6 mph21.9 kmh 30.18 in1022.0 mb 0.00 in0.0 mm 0.00 in0.0 mm 0.00 in0.0 mm
08:25 PM 24.8°F-4.0°C 14.0°F-10.0°C 66% 10.8 mph E17.4 kmh E 17.9 mph28.8 kmh 30.18 in1022.0 mb 0.00 in0.0 mm 0.00 in0.0 mm 0.00 in0.0 mm
08:30 PM 24.8°F-4.0°C 14.0°F-10.0°C 66% 10.7 mph E17.2 kmh E 17.9 mph28.8 kmh 30.18 in1022.0 mb 0.00 in0.0 mm 0.00 in0.0 mm 0.00 in0.0 mm
08:35 PM 24.8°F-4.0°C 14.0°F-10.0°C 66% 10.2 mph E16.4 kmh E 16.8 mph27.0 kmh 30.18 in1022.0 mb 0.00 in0.0 mm 0.00 in0.0 mm 0.00 in0.0 mm
08:40 PM 24.8°F-4.0°C 14.0°F-10.0°C 65% 10.2 mph ENE16.4 kmh ENE 16.8 mph27.0 kmh 30.18 in1022.0 mb 0.00 in0.0 mm 0.00 in0.0 mm 0.00 in0.0 mm
08:45 PM 25.0°F-3.9°C 14.0°F-10.0°C 65% 7.5 mph E12.1 kmh E 13.0 mph20.9 kmh 30.18 in1022.0 mb 0.00 in0.0 mm 0.00 in0.0 mm 0.00 in0.0 mm
08:50 PM 25.2°F-3.8°C 14.0°F-10.0°C 65% 7.0 mph E11.3 kmh E 10.3 mph16.6 kmh 30.18 in1022.0 mb 0.00 in0.0 mm 0.00 in0.0 mm 0.00 in0.0 mm
08:55 PM 25.2°F-3.8°C 14.0°F-10.0°C 65% 8.6 mph E13.8 kmh E 12.1 mph19.5 kmh 30.18 in1022.0 mb 0.00 in0.0 mm 0.00 in0.0 mm 0.00 in0.0 mm
09:00 PM 25.2°F-3.8°C 14.0°F-10.0°C 65% 8.7 mph E14.0 kmh E 12.1 mph19.5 kmh 30.18 in1022.0 mb 0.00 in0.0 mm 0.00 in0.0 mm 0.00 in0.0 mm
09:05 PM 25.3°F-3.7°C 14.0°F-10.0°C 65% 8.4 mph E13.5 kmh E 13.0 mph20.9 kmh 30.18 in1022.0 mb 0.00 in0.0 mm 0.00 in0.0 mm 0.00 in0.0 mm
09:10 PM 25.3°F-3.7°C 14.0°F-10.0°C 65% 9.1 mph E14.6 kmh E 13.0 mph20.9 kmh 30.18 in1022.0 mb 0.00 in0.0 mm 0.00 in0.0 mm 0.00 in0.0 mm
09:15 PM 25.3°F-3.7°C 14.0°F-10.0°C 65% 9.6 mph E15.4 kmh E 14.3 mph23.0 kmh 30.18 in1022.0 mb 0.00 in0.0 mm 0.00 in0.0 mm 0.00 in0.0 mm
09:20 PM 25.5°F-3.6°C 14.0°F-10.0°C 64% 10.6 mph E17.1 kmh E 17.9 mph28.8 kmh 30.18 in1022.0 mb 0.00 in0.0 mm 0.00 in0.0 mm 0.00 in0.0 mm
09:25 PM 25.2°F-3.8°C 14.0°F-10.0°C 64% 12.0 mph E19.3 kmh E 17.9 mph28.8 kmh 30.18 in1022.0 mb 0.00 in0.0 mm 0.00 in0.0 mm 0.00 in0.0 mm
09:30 PM 24.6°F-4.1°C 12.2°F-11.0°C 64% 12.8 mph E20.6 kmh E 17.4 mph28.0 kmh 30.18 in1022.0 mb 0.00 in0.0 mm 0.00 in0.0 mm 0.00 in0.0 mm
09:35 PM 24.8°F-4.0°C 14.0°F-10.0°C 64% 10.7 mph E17.2 kmh E 16.8 mph27.0 kmh 30.18 in1022.0 mb 0.00 in0.0 mm 0.00 in0.0 mm 0.00 in0.0 mm
09:40 PM 24.8°F-4.0°C 14.0°F-10.0°C 65% 10.7 mph E17.2 kmh E 17.0 mph27.4 kmh 30.18 in1022.0 mb 0.00 in0.0 mm 0.00 in0.0 mm 0.00 in0.0 mm
09:45 PM 24.8°F-4.0°C 14.0°F-10.0°C 65% 11.4 mph E18.3 kmh E 17.0 mph27.4 kmh 30.15 in1021.0 mb 0.00 in0.0 mm 0.00 in0.0 mm 0.00 in0.0 mm
09:50 PM 24.6°F-4.1°C 14.0°F-10.0°C 65% 12.0 mph E19.3 kmh E 18.1 mph29.1 kmh 30.15 in1021.0 mb 0.00 in0.0 mm 0.00 in0.0 mm 0.00 in0.0 mm
09:55 PM 24.4°F-4.2°C 14.0°F-10.0°C 65% 10.3 mph E16.6 kmh E 18.1 mph29.1 kmh 30.15 in1021.0 mb 0.00 in0.0 mm 0.00 in0.0 mm 0.00 in0.0 mm
10:00 PM 24.4°F-4.2°C 12.2°F-11.0°C 64% 8.1 mph E13.0 kmh E 10.1 mph16.3 kmh 30.15 in1021.0 mb 0.00 in0.0 mm 0.00 in0.0 mm 0.00 in0.0 mm
10:05 PM 24.8°F-4.0°C 14.0°F-10.0°C 64% 8.4 mph ESE13.5 kmh ESE 15.9 mph25.6 kmh 30.15 in1021.0 mb 0.00 in0.0 mm 0.00 in0.0 mm 0.00 in0.0 mm
10:10 PM 24.8°F-4.0°C 14.0°F-10.0°C 65% 10.1 mph E16.3 kmh E 15.9 mph25.6 kmh 30.15 in1021.0 mb 0.00 in0.0 mm 0.00 in0.0 mm 0.00 in0.0 mm
10:15 PM 24.8°F-4.0°C 14.0°F-10.0°C 67% 15.9 mph E25.6 kmh E 28.0 mph45.1 kmh 30.15 in1021.0 mb 0.00 in0.0 mm 0.00 in0.0 mm 0.00 in0.0 mm
10:20 PM 24.8°F-4.0°C 14.0°F-10.0°C 68% 14.9 mph E24.0 kmh E 28.0 mph45.1 kmh 30.15 in1021.0 mb 0.00 in0.0 mm 0.00 in0.0 mm 0.00 in0.0 mm
10:25 PM 24.8°F-4.0°C 14.0°F-10.0°C 68% 10.7 mph E17.2 kmh E 17.4 mph28.0 kmh 30.15 in1021.0 mb 0.00 in0.0 mm 0.00 in0.0 mm 0.00 in0.0 mm
10:30 PM 24.8°F-4.0°C 14.0°F-10.0°C 69% 10.8 mph E17.4 kmh E 17.4 mph28.0 kmh 30.15 in1021.0 mb 0.00 in0.0 mm 0.00 in0.0 mm 0.00 in0.0 mm
10:35 PM 24.8°F-4.0°C 14.0°F-10.0°C 69% 11.3 mph E18.2 kmh E 17.4 mph28.0 kmh 30.15 in1021.0 mb 0.00 in0.0 mm 0.00 in0.0 mm 0.00 in0.0 mm
10:40 PM 24.4°F-4.2°C 14.0°F-10.0°C 69% 12.2 mph ENE19.6 kmh ENE 17.4 mph28.0 kmh 30.15 in1021.0 mb 0.00 in0.0 mm 0.00 in0.0 mm 0.00 in0.0 mm
10:45 PM 24.8°F-4.0°C 14.0°F-10.0°C 68% 11.8 mph E19.0 kmh E 15.2 mph24.5 kmh 30.15 in1021.0 mb 0.00 in0.0 mm 0.00 in0.0 mm 0.00 in0.0 mm
10:50 PM 24.8°F-4.0°C 14.0°F-10.0°C 68% 11.4 mph E18.3 kmh E 19.7 mph31.7 kmh 30.15 in1021.0 mb 0.00 in0.0 mm 0.00 in0.0 mm 0.00 in0.0 mm
10:55 PM 25.0°F-3.9°C 14.0°F-10.0°C 69% 10.6 mph E17.1 kmh E 19.7 mph31.7 kmh 30.15 in1021.0 mb 0.00 in0.0 mm 0.00 in0.0 mm 0.00 in0.0 mm
11:00 PM 24.8°F-4.0°C 14.0°F-10.0°C 69% 13.5 mph SE21.7 kmh SE 18.6 mph29.9 kmh 30.12 in1020.0 mb 0.00 in0.0 mm 0.00 in0.0 mm 0.00 in0.0 mm
11:05 PM 24.8°F-4.0°C 14.0°F-10.0°C 69% 16.3 mph ESE26.2 kmh ESE 18.8 mph30.3 kmh 30.12 in1020.0 mb 0.00 in0.0 mm 0.00 in0.0 mm 0.00 in0.0 mm
11:10 PM 24.6°F-4.1°C 14.0°F-10.0°C 69% 15.1 mph E24.3 kmh E 21.9 mph35.2 kmh 30.12 in1020.0 mb 0.00 in0.0 mm 0.00 in0.0 mm 0.00 in0.0 mm
11:15 PM 24.8°F-4.0°C 14.0°F-10.0°C 69% 13.7 mph E22.0 kmh E 21.9 mph35.2 kmh 30.12 in1020.0 mb 0.00 in0.0 mm 0.00 in0.0 mm 0.00 in0.0 mm
11:20 PM 25.0°F-3.9°C 14.0°F-10.0°C 69% 11.2 mph E18.0 kmh E 16.3 mph26.2 kmh 30.12 in1020.0 mb 0.00 in0.0 mm 0.00 in0.0 mm 0.00 in0.0 mm
11:25 PM 25.0°F-3.9°C 14.0°F-10.0°C 69% 8.9 mph E14.3 kmh E 15.7 mph25.3 kmh 30.12 in1020.0 mb 0.00 in0.0 mm 0.00 in0.0 mm 0.00 in0.0 mm
11:30 PM 24.8°F-4.0°C 14.0°F-10.0°C 69% 8.4 mph E13.5 kmh E 13.9 mph22.4 kmh 30.12 in1020.0 mb 0.00 in0.0 mm 0.00 in0.0 mm 0.00 in0.0 mm
11:35 PM 24.8°F-4.0°C 14.0°F-10.0°C 69% 10.3 mph E16.6 kmh E 15.9 mph25.6 kmh 30.12 in1020.0 mb 0.00 in0.0 mm 0.00 in0.0 mm 0.00 in0.0 mm
11:40 PM 24.8°F-4.0°C 15.8°F-9.0°C 70% 12.9 mph E20.8 kmh E 24.4 mph39.3 kmh 30.12 in1020.0 mb 0.00 in0.0 mm 0.00 in0.0 mm 0.00 in0.0 mm
11:45 PM 24.8°F-4.0°C 15.8°F-9.0°C 70% 14.4 mph E23.2 kmh E 24.4 mph39.3 kmh 30.12 in1020.0 mb 0.00 in0.0 mm 0.00 in0.0 mm 0.00 in0.0 mm
11:50 PM 24.8°F-4.0°C 15.8°F-9.0°C 70% 14.1 mph E22.7 kmh E 17.4 mph28.0 kmh 30.12 in1020.0 mb 0.00 in0.0 mm 0.00 in0.0 mm 0.00 in0.0 mm
11:55 PM 24.6°F-4.1°C 14.0°F-10.0°C 70% 14.5 mph E23.3 kmh E 17.4 mph28.0 kmh 30.12 in1020.0 mb 0.00 in0.0 mm 0.00 in0.0 mm 0.00 in0.0 mm